• Join FlightAware (Why Join?)
  • Login
  • US Flag 
06:05AM EDT


 

Airport Tracker/Info


-or-


 

Live Flight TrackerFlight Track Log ✈ EJA583 ✈ 18-Sep-2013 ✈ KCOS - 2T1

Flight Track Log - Related Links

Times and Time Zones

All times are in EDT time to prevent confusion due to time zone crossing. See the EJA583 flight status page for this flight to view local times or setup timezone preferences in your user account.

Time Position Orientation Groundspeed Altitude Reporting Facility
EDT Latitude Longitude Course Direction KTS MPH feet Rate Location/Type
03:22PM 38.7269 -104.7117 152° Southeast 239 275 9,200  Level Denver Center
03:22PM 38.7244 -104.7125 195° South 235 270 9,300 2,580 Climbing Denver Center
03:23PM 38.6789 -104.6608 138° Southeast 242 278 11,900 2,280 Climbing Denver Center
03:24PM 38.6383 -104.5831 124° Southeast 267 307 13,900 1,920 Climbing Denver Center
03:25PM 38.5725 -104.4936 133° Southeast 303 349 16,000 1,800 Climbing Denver Center
03:26PM 38.5133 -104.4128 133° Southeast 318 366 17,700 1,860 Climbing Denver Center
03:27PM 38.4406 -104.3119 133° Southeast 339 390 19,900 1,920 Climbing Denver Center
03:28PM 38.2804 -104.4528 152° Southeast  Level Estimated
03:28PM 38.3756 -104.2247 134° Southeast 350 403 21,700  Level Denver Center
03:30PM 38.2947 -104.1219 135° Southeast 364 419 23,800 1,860 Climbing Denver Center
03:31PM 38.1903 -104.0686 158° South 358 412 26,000 1,860 Climbing Denver Center
03:32PM 38.0875 -104.0161 158° South 355 409 28,100 1,860 Climbing Denver Center
03:33PM 37.9989 -103.9722 159° South 356 410 29,900 1,860 Climbing Denver Center
03:34PM 37.8961 -103.9197 158° South 355 409 32,000 1,500 Climbing Denver Center
03:35PM 37.8075 -103.8747 158° South 357 411 33,000 480 Climbing Denver Center
03:36PM 37.6922 -103.8150 158° South 395 455 33,000  Level Denver Center
03:37PM 37.5892 -103.7631 158° South 409 471 33,000  Level Denver Center
03:38PM 37.4856 -103.7122 159° South 412 474 33,000  Level Denver Center
03:39PM 37.3644 -103.6519 158° South 412 474 33,000  Level Denver Center
03:40PM 37.2628 -103.6022 159° South 414 476 33,000  Level Denver Center
03:41PM 37.1389 -103.5650 167° South 409 471 33,000  Level Denver Center
03:42PM 37.0675 -103.5433 166° South 412 474 33,000  Level Albuquerque Center
03:47PM 36.4939 -103.3867 168° South 404 465 33,000  Level Albuquerque Center
03:48PM 36.3769 -103.3481 165° South 417 480 33,000  Level Albuquerque Center
03:49PM 36.2622 -103.3139 166° South 416 479 33,000  Level Albuquerque Center
03:50PM 36.1544 -103.2914 170° South 398 458 33,000  Level Albuquerque Center
03:51PM 36.0408 -103.2581 167° South 407 468 33,000  Level Albuquerque Center
03:52PM 35.9269 -103.2278 168° South 412 474 33,000  Level Albuquerque Center
03:53PM 35.8144 -103.1961 167° South 411 473 33,000  Level Albuquerque Center
03:54PM 35.7008 -103.1647 167° South 412 474 33,000  Level Albuquerque Center
03:55PM 35.5694 -103.1289 167° South 410 472 33,000 -240 Level Albuquerque Center
03:56PM 35.4572 -103.0975 167° South 409 471 32,600 -960 Descending Albuquerque Center
03:57PM 35.3431 -103.0661 167° South 412 474 31,100 -1,500 Descending Albuquerque Center
03:58PM 35.2269 -103.0361 168° South 417 480 29,600 -1,740 Descending Albuquerque Center
03:59PM 35.1117 -103.0039 167° South 419 482 27,700 -2,220 Descending Albuquerque Center
04:00PM 34.9933 -102.9728 168° South 424 488 25,000 -2,820 Descending Albuquerque Center
04:01PM 34.8794 -102.9419 167° South 420 483 21,900 -2,940 Descending Albuquerque Center
04:02PM 34.7728 -102.9133 168° South 402 463 19,000 -2,820 Descending Albuquerque Center
04:03PM 34.6728 -102.8872 168° South 377 434 16,100 -2,940 Descending Albuquerque Center
04:04PM 34.5769 -102.8611 167° South 358 412 13,100 -2,520 Descending Albuquerque Center
04:05PM 34.4825 -102.8306 165° South 340 391 11,000 -1,020 Descending Albuquerque Center
04:06PM 34.4067 -102.7842 153° Southeast 321 369 11,000 -660 Level Albuquerque Center
04:07PM 34.3333 -102.7361 152° Southeast 310 357 9,700 -1,920 Descending Albuquerque Center
04:08PM 34.2489 -102.6808 152° Southeast 300 345 7,200 -2,460 Descending Albuquerque Center